createdAt,value
2018-09-14T00:00:06.817Z,98075.33
2018-09-14T00:00:38.418Z,98072.34
2018-09-14T00:01:10.016Z,98072.35
2018-09-14T00:01:41.612Z,98075.77
2018-09-14T00:02:13.190Z,98074.08
2018-09-14T00:02:44.799Z,98072.37
2018-09-14T00:03:16.389Z,98034.16
2018-09-14T00:03:47.976Z,98077.08
2018-09-14T00:04:19.581Z,98076.22
2018-09-14T00:04:51.190Z,98076.69
2018-09-14T00:05:22.801Z,98074.99
2018-09-14T00:05:54.406Z,98064.83
2018-09-14T00:06:26.014Z,98077.98
2018-09-14T00:06:57.621Z,98073.22
2018-09-14T00:07:29.208Z,98083.05
2018-09-14T00:08:00.820Z,98075.35
2018-09-14T00:08:32.423Z,98077.48
2018-09-14T00:09:04.017Z,98074.52
2018-09-14T00:09:35.603Z,98071.57
2018-09-14T00:10:07.188Z,98076.69
2018-09-14T00:10:38.762Z,98074.55
2018-09-14T00:11:10.352Z,98081.40
2018-09-14T00:11:41.937Z,98077.15
2018-09-14T00:12:13.532Z,98076.72
2018-09-14T00:12:45.120Z,98082.32
2018-09-14T00:13:16.748Z,98080.20
2018-09-14T00:13:48.354Z,98081.06
2018-09-14T00:14:19.943Z,98076.38
2018-09-14T00:14:51.535Z,98077.66
2018-09-14T00:15:23.138Z,98081.06
2018-09-14T00:15:54.742Z,98074.25
2018-09-14T00:16:26.336Z,98076.00
2018-09-14T00:16:57.937Z,98075.53
2018-09-14T00:17:29.524Z,98076.00
2018-09-14T00:18:01.153Z,98079.42
2018-09-14T00:18:32.740Z,98080.28
2018-09-14T00:19:04.336Z,98077.30
2018-09-14T00:19:35.928Z,98075.58
2018-09-14T00:20:07.516Z,98079.03
2018-09-14T00:20:39.100Z,98083.70
2018-09-14T00:21:10.682Z,98051.39
2018-09-14T00:21:42.268Z,98079.02
2018-09-14T00:22:13.870Z,98082.02
2018-09-14T00:22:45.460Z,98077.37
2018-09-14T00:23:17.066Z,98084.62
2018-09-14T00:23:48.647Z,98079.92
2018-09-14T00:24:20.235Z,98083.34
2018-09-14T00:24:52.520Z,98081.59
2018-09-14T00:25:24.112Z,98082.88
2018-09-14T00:25:55.709Z,98082.88
2018-09-14T00:26:27.314Z,98083.77
2018-09-14T00:26:58.904Z,98083.77
2018-09-14T00:27:30.507Z,98085.48
2018-09-14T00:28:02.096Z,98080.80
2018-09-14T00:28:33.705Z,98078.23
2018-09-14T00:29:05.286Z,98082.48
2018-09-14T00:29:36.886Z,98079.94
2018-09-14T00:30:08.476Z,98080.78
2018-09-14T00:30:40.064Z,98077.40
2018-09-14T00:31:11.666Z,98085.06
2018-09-14T00:31:43.260Z,98079.09
2018-09-14T00:32:14.849Z,98077.37
2018-09-14T00:32:46.436Z,98084.64
2018-09-14T00:33:18.075Z,98079.45
2018-09-14T00:33:49.683Z,98076.08
2018-09-14T00:34:21.276Z,98071.39
2018-09-14T00:34:52.868Z,98073.95
2018-09-14T00:35:24.474Z,98074.80
2018-09-14T00:35:56.074Z,98076.09
2018-09-14T00:36:27.683Z,98077.36
2018-09-14T00:36:59.286Z,98079.92
2018-09-14T00:37:30.875Z,98075.61
2018-09-14T00:38:02.463Z,98072.61
2018-09-14T00:38:34.075Z,98075.58
2018-09-14T00:39:05.664Z,98073.47
2018-09-14T00:39:37.247Z,98070.41
2018-09-14T00:40:08.832Z,98070.83
2018-09-14T00:40:40.416Z,98070.88
2018-09-14T00:41:12.008Z,98075.58
2018-09-14T00:41:43.587Z,98074.72
2018-09-14T00:42:15.179Z,98069.59
2018-09-14T00:42:46.790Z,98069.59
2018-09-14T00:43:18.726Z,98070.88
2018-09-14T00:43:50.319Z,98074.25
2018-09-14T00:44:21.909Z,98070.03
2018-09-14T00:44:53.511Z,98073.86
2018-09-14T00:45:25.114Z,98069.09
2018-09-14T00:45:56.704Z,98072.51
2018-09-14T00:46:28.296Z,98074.23
2018-09-14T00:46:59.881Z,98072.95
2018-09-14T00:47:31.472Z,98075.53
2018-09-14T00:48:03.070Z,98069.19
2018-09-14T00:48:34.692Z,98073.89
2018-09-14T00:49:06.293Z,98067.03
2018-09-14T00:49:37.891Z,98074.66
2018-09-14T00:50:09.480Z,98073.78
2018-09-14T00:50:41.055Z,98078.86
2018-09-14T00:51:12.643Z,98074.16
2018-09-14T00:51:44.228Z,98079.70
2018-09-14T00:52:15.830Z,98086.11
2018-09-14T00:52:47.434Z,98077.99
2018-09-14T00:53:19.038Z,98080.55
2018-09-14T00:53:50.674Z,98074.16
2018-09-14T00:54:22.255Z,98070.38
2018-09-14T00:54:53.830Z,98075.02
2018-09-14T00:55:25.429Z,98078.05
2018-09-14T00:55:57.034Z,98075.92
2018-09-14T00:56:28.637Z,98075.06
2018-09-14T00:57:00.238Z,98073.78
2018-09-14T00:57:31.850Z,98077.20
2018-09-14T00:58:03.449Z,98078.92
2018-09-14T00:58:35.086Z,98074.66
2018-09-14T00:59:06.687Z,98069.11
2018-09-14T00:59:38.285Z,98076.80
2018-09-14T01:00:09.890Z,98070.38
2018-09-14T01:00:41.484Z,98074.66
2018-09-14T01:01:13.089Z,98071.66
2018-09-14T01:01:44.676Z,98071.66
2018-09-14T01:02:16.282Z,98074.67
2018-09-14T01:02:47.886Z,98073.37
2018-09-14T01:03:19.488Z,98071.30
2018-09-14T01:03:51.118Z,98072.09
2018-09-14T01:04:22.696Z,98070.39
2018-09-14T01:04:54.297Z,98077.22
2018-09-14T01:05:25.902Z,98069.12
2018-09-14T01:05:57.488Z,98066.98
2018-09-14T01:06:29.095Z,98070.83
2018-09-14T01:07:00.684Z,98070.83
2018-09-14T01:07:32.272Z,98075.09
2018-09-14T01:08:03.860Z,98074.23
2018-09-14T01:08:35.788Z,98070.83
2018-09-14T01:09:07.386Z,98068.69
2018-09-14T01:09:38.978Z,98067.89
2018-09-14T01:10:10.582Z,98067.45
2018-09-14T01:10:42.160Z,98069.17
2018-09-14T01:11:13.752Z,98068.78
2018-09-14T01:11:45.344Z,98068.39
2018-09-14T01:12:16.928Z,98061.14
2018-09-14T01:12:48.516Z,98063.27
2018-09-14T01:13:20.113Z,98065.84
2018-09-14T01:13:51.742Z,98064.13
2018-09-14T01:14:23.332Z,98064.06
2018-09-14T01:14:54.920Z,98061.84
2018-09-14T01:15:26.511Z,98063.13
2018-09-14T01:15:58.102Z,98069.52
2018-09-14T01:16:29.696Z,98067.38
2018-09-14T01:17:01.303Z,98065.67
2018-09-14T01:17:33.968Z,98063.11
2018-09-14T01:18:05.551Z,98067.80
2018-09-14T01:18:37.186Z,98067.80
2018-09-14T01:19:08.802Z,98065.78
2018-09-14T01:19:40.388Z,98064.00
2018-09-14T01:20:12.007Z,98058.08
2018-09-14T01:20:43.582Z,98055.94
2018-09-14T01:21:15.187Z,98061.08
2018-09-14T01:21:46.781Z,98063.56
2018-09-14T01:22:18.376Z,98061.42
2018-09-14T01:22:49.958Z,98061.42
2018-09-14T01:23:21.548Z,98058.52
2018-09-14T01:23:53.169Z,98064.55
2018-09-14T01:24:24.765Z,98057.75
2018-09-14T01:24:56.342Z,98057.37
2018-09-14T01:25:27.946Z,98058.60
2018-09-14T01:25:59.536Z,98057.32
2018-09-14T01:26:31.142Z,98059.09
2018-09-14T01:27:02.731Z,98051.84
2018-09-14T01:27:34.330Z,98054.03
2018-09-14T01:28:05.928Z,98057.05
2018-09-14T01:28:37.520Z,98055.77
2018-09-14T01:29:09.136Z,98057.06
2018-09-14T01:29:40.739Z,98052.41
2018-09-14T01:30:12.341Z,98053.27
2018-09-14T01:30:43.928Z,98056.25
2018-09-14T01:31:15.531Z,98052.42
2018-09-14T01:31:47.118Z,98054.56
2018-09-14T01:32:18.704Z,98055.42
2018-09-14T01:32:50.298Z,98048.95
2018-09-14T01:33:21.897Z,98050.58
2018-09-14T01:33:53.508Z,98052.28
2018-09-14T01:34:25.110Z,98050.97
2018-09-14T01:34:56.714Z,98047.92
2018-09-14T01:35:28.304Z,98051.34
2018-09-14T01:35:59.902Z,98050.90
2018-09-14T01:36:31.506Z,98051.75
2018-09-14T01:37:03.109Z,98052.18
2018-09-14T01:37:34.715Z,98023.72
2018-09-14T01:38:06.304Z,98053.81
2018-09-14T01:38:37.911Z,98053.41
2018-09-14T01:39:09.518Z,98053.46
2018-09-14T01:39:41.103Z,98058.60
2018-09-14T01:40:12.702Z,98050.06
2018-09-14T01:40:44.292Z,98046.73
2018-09-14T01:41:15.880Z,98050.97
2018-09-14T01:41:47.472Z,98049.30
2018-09-14T01:42:19.078Z,98048.48
2018-09-14T01:42:50.682Z,98052.34
2018-09-14T01:43:22.261Z,98046.45
2018-09-14T01:43:53.890Z,98048.58
2018-09-14T01:44:25.518Z,98046.89
2018-09-14T01:44:57.112Z,98044.75
2018-09-14T01:45:28.704Z,98042.24
2018-09-14T01:46:00.307Z,98046.10
2018-09-14T01:46:31.892Z,98044.03
2018-09-14T01:47:03.480Z,98047.39
2018-09-14T01:47:35.072Z,98043.17
2018-09-14T01:48:06.664Z,98040.61
2018-09-14T01:48:38.251Z,98041.05
2018-09-14T01:49:09.878Z,98041.48
2018-09-14T01:49:41.464Z,98040.61
2018-09-14T01:50:13.052Z,98042.28
2018-09-14T01:50:44.653Z,98038.85
2018-09-14T01:51:16.240Z,98040.14
2018-09-14T01:51:47.831Z,98035.00
2018-09-14T01:52:19.436Z,98044.80
2018-09-14T01:52:51.024Z,98037.49
2018-09-14T01:53:22.616Z,98039.05
2018-09-14T01:53:54.221Z,98042.42
2018-09-14T01:54:25.839Z,98042.37
2018-09-14T01:54:57.423Z,98045.35
2018-09-14T01:55:29.015Z,98047.92
2018-09-14T01:56:00.606Z,98040.24
2018-09-14T01:56:32.193Z,98022.26
2018-09-14T01:57:03.788Z,98045.00
2018-09-14T01:57:35.394Z,98041.73
2018-09-14T01:58:07.004Z,98038.25
2018-09-14T01:58:38.591Z,98041.17
2018-09-14T01:59:10.194Z,98047.51
2018-09-14T01:59:41.780Z,98042.35
2018-09-14T02:00:13.387Z,98041.05
2018-09-14T02:00:44.976Z,98043.97
2018-09-14T02:01:16.560Z,98047.72
2018-09-14T02:01:48.162Z,98048.16
2018-09-14T02:02:19.738Z,98051.52
2018-09-14T02:02:51.337Z,98045.53
2018-09-14T02:03:22.921Z,98050.64
2018-09-14T02:03:54.532Z,98046.81
2018-09-14T02:04:26.138Z,98043.83
2018-09-14T02:04:57.737Z,98048.58
2018-09-14T02:05:29.350Z,98046.05
2018-09-14T02:06:00.940Z,98046.05
2018-09-14T02:06:32.533Z,98049.91
2018-09-14T02:07:04.116Z,98048.67
2018-09-14T02:07:35.709Z,98044.86
2018-09-14T02:08:07.310Z,98046.18
2018-09-14T02:08:38.914Z,98048.32
2018-09-14T02:09:10.528Z,98041.49
2018-09-14T02:09:42.115Z,98047.04
2018-09-14T02:10:13.711Z,98047.06
2018-09-14T02:10:45.314Z,98051.34
2018-09-14T02:11:16.896Z,98051.40
2018-09-14T02:11:48.470Z,98051.83
2018-09-14T02:12:20.057Z,98048.02
2018-09-14T02:12:51.663Z,98047.63
2018-09-14T02:13:23.252Z,98047.55
2018-09-14T02:13:54.856Z,98047.99
2018-09-14T02:14:26.485Z,98049.26
2018-09-14T02:14:58.086Z,98045.84
2018-09-14T02:15:29.676Z,98045.02
2018-09-14T02:16:01.272Z,98050.49
2018-09-14T02:16:32.868Z,98044.14
2018-09-14T02:17:04.456Z,98052.63
2018-09-14T02:17:36.035Z,98044.56
2018-09-14T02:18:07.666Z,98053.11
2018-09-14T02:18:39.255Z,98051.40
2018-09-14T02:19:10.887Z,98044.14
2018-09-14T02:19:42.463Z,98049.70
2018-09-14T02:20:14.048Z,98050.98
2018-09-14T02:20:45.644Z,98053.55
2018-09-14T02:21:17.232Z,98047.58
2018-09-14T02:21:49.136Z,98051.42
2018-09-14T02:22:21.069Z,98049.26
2018-09-14T02:22:52.992Z,98048.77
2018-09-14T02:23:24.815Z,98051.76
2018-09-14T02:23:56.784Z,98045.34
2018-09-14T02:24:28.626Z,98050.45
2018-09-14T02:25:00.278Z,98051.69
2018-09-14T02:25:31.953Z,98049.13
2018-09-14T02:26:03.531Z,98055.53
2018-09-14T02:26:35.116Z,98053.02
2018-09-14T02:27:06.724Z,98044.04
2018-09-14T02:27:38.325Z,98050.03
2018-09-14T02:28:09.926Z,98047.04
2018-09-14T02:28:41.516Z,98052.20
2018-09-14T02:29:13.104Z,98047.91
2018-09-14T02:29:44.705Z,98047.91
2018-09-14T02:30:16.282Z,98055.18
2018-09-14T02:30:47.857Z,98053.48
2018-09-14T02:31:19.458Z,98056.90
2018-09-14T02:31:51.039Z,98057.80
2018-09-14T02:32:22.624Z,98062.87
2018-09-14T02:32:54.250Z,98054.80
2018-09-14T02:33:25.826Z,98056.46
2018-09-14T02:33:57.444Z,98063.27
2018-09-14T02:34:29.098Z,98058.58
2018-09-14T02:35:00.693Z,98056.46
2018-09-14T02:35:32.284Z,98052.70
2018-09-14T02:36:03.873Z,98058.25
2018-09-14T02:36:35.463Z,98060.03
2018-09-14T02:37:07.053Z,98059.19
2018-09-14T02:37:38.638Z,98060.45
2018-09-14T02:38:10.215Z,98058.27
2018-09-14T02:38:41.807Z,98057.87
2018-09-14T02:39:13.396Z,98056.53
2018-09-14T02:39:44.983Z,98056.09
2018-09-14T02:40:16.585Z,98056.03
2018-09-14T02:40:48.175Z,98060.56
2018-09-14T02:41:19.782Z,98062.45
2018-09-14T02:41:51.380Z,98090.83
2018-09-14T02:42:22.990Z,98058.70
2018-09-14T02:42:54.581Z,98060.84
2018-09-14T02:43:26.164Z,98059.60
2018-09-14T02:43:57.746Z,98054.56
2018-09-14T02:44:29.349Z,98053.84
2018-09-14T02:45:00.949Z,98054.78
2018-09-14T02:45:32.548Z,98053.20
2018-09-14T02:46:04.183Z,98053.31
2018-09-14T02:46:35.776Z,98051.23
2018-09-14T02:47:07.360Z,98055.60
2018-09-14T02:47:38.934Z,98052.27
2018-09-14T02:48:10.520Z,98047.64
2018-09-14T02:48:42.116Z,98051.58
2018-09-14T02:49:13.694Z,98052.93
2018-09-14T02:49:45.325Z,98056.36
2018-09-14T02:50:16.912Z,98056.42
2018-09-14T02:50:49.543Z,98047.91
2018-09-14T02:51:21.140Z,98059.26
2018-09-14T02:51:52.754Z,98052.70
2018-09-14T02:52:24.359Z,98054.17
2018-09-14T02:52:55.948Z,98056.99
2018-09-14T02:53:27.540Z,98060.33
2018-09-14T02:53:59.142Z,98053.15
2018-09-14T02:54:30.746Z,98057.50
2018-09-14T02:55:02.386Z,98055.50
2018-09-14T02:55:33.991Z,98056.04
2018-09-14T02:56:05.598Z,98054.89
2018-09-14T02:56:37.204Z,98053.70
2018-09-14T02:57:08.812Z,98053.34
2018-09-14T02:57:40.418Z,98056.28
2018-09-14T02:58:12.023Z,98056.19
2018-09-14T02:58:43.608Z,98055.23
2018-09-14T02:59:15.204Z,98061.09
2018-09-14T02:59:46.813Z,98055.11
2018-09-14T03:00:18.466Z,98059.93
2018-09-14T03:00:50.051Z,98061.75
2018-09-14T03:01:21.626Z,98053.73
2018-09-14T03:01:53.226Z,98055.50
2018-09-14T03:02:24.816Z,98055.16
2018-09-14T03:02:56.404Z,98050.96
2018-09-14T03:03:28.007Z,98063.42
2018-09-14T03:03:59.606Z,98052.81
2018-09-14T03:04:31.211Z,98057.27
2018-09-14T03:05:02.822Z,98052.66
2018-09-14T03:05:34.453Z,98059.57
2018-09-14T03:06:06.040Z,98051.47
2018-09-14T03:06:37.614Z,98057.07
2018-09-14T03:07:09.218Z,98054.94
2018-09-14T03:07:40.811Z,98059.66
2018-09-14T03:08:12.406Z,98050.31
2018-09-14T03:08:43.996Z,98056.30
2018-09-14T03:09:15.583Z,98050.33
2018-09-14T03:09:47.186Z,98055.07
2018-09-14T03:10:18.790Z,98052.54
2018-09-14T03:10:50.414Z,98054.67
2018-09-14T03:11:22.014Z,98056.44
2018-09-14T03:11:53.617Z,98051.75
2018-09-14T03:12:25.228Z,98056.46
2018-09-14T03:12:56.834Z,98052.20
2018-09-14T03:13:28.423Z,98056.94
2018-09-14T03:14:00.012Z,98054.38
2018-09-14T03:14:31.599Z,98058.25
2018-09-14T03:15:03.183Z,98058.30
2018-09-14T03:15:34.777Z,98055.73
2018-09-14T03:16:06.402Z,98053.17
2018-09-14T03:16:37.992Z,98053.61
2018-09-14T03:17:09.594Z,98051.06
2018-09-14T03:17:41.184Z,98056.61
2018-09-14T03:18:12.773Z,98054.95
2018-09-14T03:18:44.365Z,98051.55
2018-09-14T03:19:15.966Z,98051.55
2018-09-14T03:19:47.552Z,98052.84
2018-09-14T03:20:19.136Z,98054.95
2018-09-14T03:20:50.739Z,98054.53
2018-09-14T03:21:22.373Z,98054.15
2018-09-14T03:21:53.980Z,98053.30
2018-09-14T03:22:25.577Z,98049.13
2018-09-14T03:22:57.163Z,98052.91
2018-09-14T03:23:28.748Z,98058.88
2018-09-14T03:24:00.399Z,98056.73
2018-09-14T03:24:31.992Z,98056.36
2018-09-14T03:25:03.584Z,98058.09
2018-09-14T03:25:35.177Z,98048.70
2018-09-14T03:26:06.774Z,98057.66
2018-09-14T03:26:38.379Z,98051.70
2018-09-14T03:27:09.978Z,98053.41
2018-09-14T03:27:41.568Z,98053.03
2018-09-14T03:28:13.152Z,98056.45
2018-09-14T03:28:44.740Z,98053.03
2018-09-14T03:29:16.332Z,98052.19
2018-09-14T03:29:47.929Z,98050.92
2018-09-14T03:30:19.531Z,98047.94
2018-09-14T03:30:51.143Z,98050.55
2018-09-14T03:31:22.756Z,98049.69
2018-09-14T03:31:54.386Z,98029.13
2018-09-14T03:32:25.994Z,98045.88
2018-09-14T03:32:57.598Z,98047.56
2018-09-14T03:33:29.179Z,98051.41
2018-09-14T03:34:00.789Z,98048.43
2018-09-14T03:34:32.376Z,98046.29
2018-09-14T03:35:03.968Z,98045.49
2018-09-14T03:35:35.547Z,98045.49
2018-09-14T03:36:07.145Z,98045.50
2018-09-14T03:36:38.739Z,98042.95
2018-09-14T03:37:10.314Z,98042.52
2018-09-14T03:37:41.914Z,98045.08
2018-09-14T03:38:13.522Z,98042.52
2018-09-14T03:38:45.137Z,98043.37
2018-09-14T03:39:16.759Z,98039.53
2018-09-14T03:39:48.369Z,98041.67
2018-09-14T03:40:19.958Z,98043.80
2018-09-14T03:40:51.557Z,98045.11
2018-09-14T03:41:23.143Z,98065.63
2018-09-14T03:41:54.750Z,98040.89
2018-09-14T03:42:26.340Z,98041.75
2018-09-14T03:42:57.946Z,98041.75
2018-09-14T03:43:29.551Z,98041.33
2018-09-14T03:44:01.140Z,98040.04
2018-09-14T03:44:32.748Z,98042.61
2018-09-14T03:45:04.340Z,98043.89
2018-09-14T03:45:35.937Z,98046.03
2018-09-14T03:46:07.522Z,98044.38
2018-09-14T03:46:39.127Z,98050.73
2018-09-14T03:47:10.748Z,98047.31
2018-09-14T03:47:42.336Z,98053.29
2018-09-14T03:48:13.943Z,98050.73
2018-09-14T03:48:45.537Z,98046.94
2018-09-14T03:49:17.129Z,98052.90
2018-09-14T03:49:48.707Z,98047.37
2018-09-14T03:50:20.301Z,98047.79
2018-09-14T03:50:51.888Z,98043.98
2018-09-14T03:51:23.490Z,98047.37
2018-09-14T03:51:55.085Z,98047.79
2018-09-14T03:52:26.708Z,98055.05
2018-09-14T03:52:58.295Z,98046.10
2018-09-14T03:53:29.889Z,98049.98
2018-09-14T03:54:01.487Z,98046.14
2018-09-14T03:54:33.080Z,98053.36
2018-09-14T03:55:04.683Z,98050.00
2018-09-14T03:55:36.272Z,98052.58
2018-09-14T03:56:07.869Z,98055.13
2018-09-14T03:56:39.474Z,98051.72
2018-09-14T03:57:11.121Z,98051.30
2018-09-14T03:57:42.728Z,98050.87
2018-09-14T03:58:14.329Z,98053.86
2018-09-14T03:58:45.915Z,98051.77
2018-09-14T03:59:17.503Z,98054.72
2018-09-14T03:59:49.093Z,98053.44
2018-09-14T04:00:20.680Z,98055.19
2018-09-14T04:00:52.282Z,98052.63
2018-09-14T04:01:23.872Z,98049.64
2018-09-14T04:01:55.465Z,98052.64
2018-09-14T04:02:27.052Z,98049.66
2018-09-14T04:02:58.672Z,98046.67
2018-09-14T04:03:30.264Z,98048.02
2018-09-14T04:04:01.870Z,98043.70
2018-09-14T04:04:33.463Z,98045.88
2018-09-14T04:05:05.053Z,98052.66
2018-09-14T04:05:36.653Z,98050.56
2018-09-14T04:06:08.258Z,98053.12
2018-09-14T04:06:39.863Z,98049.70
2018-09-14T04:07:11.468Z,98045.02
2018-09-14T04:07:43.137Z,98042.47
2018-09-14T04:08:14.731Z,98048.01
2018-09-14T04:08:46.320Z,98049.72
2018-09-14T04:09:17.904Z,98027.84
2018-09-14T04:09:49.498Z,98048.88
2018-09-14T04:10:21.088Z,98045.89
2018-09-14T04:10:52.662Z,98049.75
2018-09-14T04:11:24.247Z,98051.88
2018-09-14T04:11:55.836Z,98048.08
2018-09-14T04:12:27.424Z,98046.38
2018-09-14T04:12:59.025Z,98038.94
2018-09-14T04:13:30.654Z,98051.06
2018-09-14T04:14:02.239Z,98049.79
2018-09-14T04:14:33.839Z,98051.91
2018-09-14T04:15:05.428Z,98048.08
2018-09-14T04:15:37.001Z,98056.19
2018-09-14T04:16:08.592Z,98054.06
2018-09-14T04:16:40.180Z,98051.08
2018-09-14T04:17:11.772Z,98056.63
2018-09-14T04:17:43.373Z,98058.76
2018-09-14T04:18:14.959Z,98057.91
2018-09-14T04:18:46.548Z,98050.67
2018-09-14T04:19:18.122Z,98056.25
2018-09-14T04:19:49.708Z,98057.97
2018-09-14T04:20:21.314Z,98059.20
2018-09-14T04:20:52.899Z,98054.93
2018-09-14T04:21:24.502Z,98059.20
2018-09-14T04:21:56.109Z,98058.81
2018-09-14T04:22:27.686Z,98063.51
2018-09-14T04:22:59.290Z,98061.38
2018-09-14T04:23:30.981Z,98052.45
2018-09-14T04:24:02.539Z,98065.22
2018-09-14T04:24:34.125Z,98072.05
2018-09-14T04:25:05.716Z,98067.78
2018-09-14T04:25:37.317Z,98064.37
2018-09-14T04:26:09.005Z,98064.37
2018-09-14T04:26:40.610Z,98065.64
2018-09-14T04:27:12.196Z,98037.17
2018-09-14T04:27:43.794Z,98066.08
2018-09-14T04:28:15.384Z,98064.80
2018-09-14T04:28:46.964Z,98064.37
2018-09-14T04:29:18.557Z,98058.40
2018-09-14T04:29:50.135Z,98065.67
2018-09-14T04:30:21.734Z,98062.67
2018-09-14T04:30:53.318Z,98066.09
2018-09-14T04:31:24.923Z,98062.27
2018-09-14T04:31:56.516Z,98054.59
2018-09-14T04:32:28.097Z,98057.14
2018-09-14T04:32:59.703Z,98060.17
2018-09-14T04:33:31.310Z,98062.25
2018-09-14T04:34:02.896Z,98055.47
2018-09-14T04:34:34.483Z,98022.73
2018-09-14T04:35:06.073Z,98055.47
2018-09-14T04:35:37.674Z,98062.31
2018-09-14T04:36:09.264Z,98056.75
2018-09-14T04:36:40.852Z,98061.41
2018-09-14T04:37:12.440Z,98058.47
2018-09-14T04:37:44.028Z,98063.16
2018-09-14T04:38:15.740Z,98058.89
2018-09-14T04:38:47.265Z,98058.42
2018-09-14T04:39:18.870Z,98062.27
2018-09-14T04:39:50.461Z,98062.74
2018-09-14T04:40:22.066Z,98064.87
2018-09-14T04:40:53.661Z,98065.73
2018-09-14T04:41:25.266Z,98067.91
2018-09-14T04:41:56.870Z,98069.19
2018-09-14T04:42:28.474Z,98064.08
2018-09-14T04:43:00.060Z,98064.09
2018-09-14T04:43:31.657Z,98065.79
2018-09-14T04:44:03.330Z,98070.05
2018-09-14T04:44:34.888Z,98066.22
2018-09-14T04:45:06.480Z,98063.30
2018-09-14T04:45:38.265Z,98060.70
2018-09-14T04:46:09.858Z,98061.54
2018-09-14T04:46:41.452Z,98061.96
2018-09-14T04:47:13.030Z,98057.33
2018-09-14T04:47:44.634Z,98062.81
2018-09-14T04:48:16.246Z,98060.25
2018-09-14T04:48:47.887Z,98058.11
2018-09-14T04:49:19.476Z,98064.09
2018-09-14T04:49:51.078Z,98064.93
2018-09-14T04:50:22.676Z,98061.11
2018-09-14T04:50:54.264Z,98059.77
2018-09-14T04:51:25.949Z,98059.34
2018-09-14T04:51:57.490Z,98060.19
2018-09-14T04:52:29.098Z,98062.73
2018-09-14T04:53:00.691Z,98057.61
2018-09-14T04:53:32.294Z,98057.14
2018-09-14T04:54:03.908Z,98060.98
2018-09-14T04:54:35.496Z,98056.28
2018-09-14T04:55:07.098Z,98058.84
2018-09-14T04:55:38.703Z,98054.16
2018-09-14T04:56:10.309Z,98057.13
2018-09-14T04:56:41.904Z,98055.00
2018-09-14T04:57:13.520Z,98062.23
2018-09-14T04:57:45.114Z,98064.37
2018-09-14T04:58:16.690Z,98059.25
2018-09-14T04:58:48.308Z,98070.77
2018-09-14T04:59:19.900Z,98060.95
2018-09-14T04:59:51.506Z,98068.62
2018-09-14T05:00:23.114Z,98064.33
2018-09-14T05:00:54.714Z,98070.72
2018-09-14T05:01:26.322Z,98097.20
2018-09-14T05:01:57.912Z,98068.57
2018-09-14T05:02:29.486Z,98069.43
2018-09-14T05:03:01.096Z,98069.00
2018-09-14T05:03:32.700Z,98070.27
2018-09-14T05:04:04.312Z,98076.25
2018-09-14T05:04:35.914Z,98077.53
2018-09-14T05:05:07.513Z,98074.53
2018-09-14T05:05:39.120Z,98074.97
2018-09-14T05:06:10.713Z,98070.70
2018-09-14T05:06:42.329Z,98063.02
2018-09-14T05:07:13.924Z,98068.13
2018-09-14T05:07:45.568Z,98075.38
2018-09-14T05:08:17.118Z,98064.71
2018-09-14T05:08:49.075Z,98065.10
2018-09-14T05:09:21.108Z,98064.28
2018-09-14T05:09:52.695Z,98064.66
2018-09-14T05:10:24.284Z,98067.27
2018-09-14T05:10:55.886Z,98063.43
2018-09-14T05:11:27.483Z,98068.94
2018-09-14T05:11:59.072Z,98068.98
2018-09-14T05:12:30.664Z,98076.23
2018-09-14T05:13:02.271Z,98068.55
2018-09-14T05:13:33.860Z,98054.28
2018-09-14T05:14:05.521Z,98071.13
2018-09-14T05:14:37.112Z,98072.39
2018-09-14T05:15:08.718Z,98072.78
2018-09-14T05:15:40.308Z,98064.72
2018-09-14T05:16:11.896Z,98074.95
2018-09-14T05:16:43.503Z,98068.57
2018-09-14T05:17:15.082Z,98074.53
2018-09-14T05:17:46.672Z,98070.22
2018-09-14T05:18:18.270Z,98065.10
2018-09-14T05:18:49.859Z,98067.23
2018-09-14T05:19:21.477Z,98066.37
2018-09-14T05:19:53.056Z,98064.71
2018-09-14T05:20:24.643Z,98063.86
2018-09-14T05:20:56.237Z,98064.30
2018-09-14T05:21:27.824Z,98067.28
2018-09-14T05:21:59.426Z,98066.00
2018-09-14T05:22:31.017Z,98067.72
2018-09-14T05:23:02.604Z,98070.27
2018-09-14T05:23:34.186Z,98071.98
2018-09-14T05:24:05.838Z,98072.83
2018-09-14T05:24:37.579Z,98072.40
2018-09-14T05:25:09.095Z,98078.38
2018-09-14T05:25:40.694Z,98075.81
2018-09-14T05:26:12.284Z,98066.06
2018-09-14T05:26:43.887Z,98077.12
2018-09-14T05:27:15.480Z,98078.00
2018-09-14T05:27:47.072Z,98072.42
2018-09-14T05:28:18.688Z,98073.28
2018-09-14T05:28:50.291Z,98069.91
2018-09-14T05:29:21.908Z,98072.47
2018-09-14T05:29:53.496Z,98070.72
2018-09-14T05:30:25.079Z,98075.03
2018-09-14T05:30:56.685Z,98075.45
2018-09-14T05:31:28.280Z,98070.77
2018-09-14T05:31:59.868Z,98077.59
2018-09-14T05:32:31.470Z,98071.20
2018-09-14T05:33:03.073Z,98075.89
2018-09-14T05:33:34.665Z,98075.47
2018-09-14T05:34:06.298Z,98078.05
2018-09-14T05:34:37.906Z,98079.32
2018-09-14T05:35:09.515Z,98082.73
2018-09-14T05:35:41.117Z,98077.23
2018-09-14T05:36:12.709Z,98080.18
2018-09-14T05:36:44.300Z,98075.91
2018-09-14T05:37:15.906Z,98078.09
2018-09-14T05:37:47.514Z,98083.62
2018-09-14T05:38:19.144Z,98081.02
2018-09-14T05:38:50.719Z,98084.02
2018-09-14T05:39:22.332Z,98081.06
2018-09-14T05:39:53.933Z,98084.48
2018-09-14T05:40:25.539Z,98079.79
2018-09-14T05:40:57.140Z,98082.78
2018-09-14T05:41:28.741Z,98081.50
2018-09-14T05:42:00.318Z,98085.77
2018-09-14T05:42:31.904Z,98081.94
2018-09-14T05:43:03.492Z,98083.22
2018-09-14T05:43:35.129Z,98080.24
2018-09-14T05:44:06.695Z,98089.63
2018-09-14T05:44:38.322Z,98085.14
2018-09-14T05:45:09.912Z,98087.92
2018-09-14T05:45:41.558Z,98086.22
2018-09-14T05:46:13.142Z,98085.41
2018-09-14T05:46:44.746Z,98082.84
2018-09-14T05:47:16.340Z,98082.42
2018-09-14T05:47:47.934Z,98085.83
2018-09-14T05:48:19.525Z,98087.50
2018-09-14T05:48:51.112Z,98088.78
2018-09-14T05:49:22.738Z,98089.24
2018-09-14T05:49:54.356Z,98089.63
2018-09-14T05:50:25.962Z,98087.06
2018-09-14T05:50:57.566Z,98093.03
2018-09-14T05:51:29.156Z,98089.17
2018-09-14T05:52:00.744Z,98092.17
2018-09-14T05:52:32.341Z,98086.62
2018-09-14T05:53:03.931Z,98091.30
2018-09-14T05:53:35.724Z,98089.60
2018-09-14T05:54:07.327Z,98096.42
2018-09-14T05:54:38.948Z,98087.05
2018-09-14T05:55:10.526Z,98087.90
2018-09-14T05:55:42.121Z,98087.90
2018-09-14T05:56:13.711Z,98088.75
2018-09-14T05:56:45.300Z,98086.58
2018-09-14T05:57:17.276Z,98083.16
2018-09-14T05:57:48.907Z,98083.62
2018-09-14T05:58:20.509Z,98084.91
2018-09-14T05:58:52.091Z,98085.34
2018-09-14T06:00:01.648Z,98087.06
2018-09-14T06:00:33.241Z,98084.55
2018-09-14T06:01:04.832Z,98089.24
2018-09-14T06:01:36.410Z,98087.98
2018-09-14T06:02:08.001Z,98084.58
2018-09-14T06:02:39.592Z,98093.12
2018-09-14T06:03:11.198Z,98087.18
2018-09-14T06:03:42.802Z,98086.34
2018-09-14T06:04:14.406Z,98086.34
2018-09-14T06:04:46.021Z,98089.75
2018-09-14T06:05:17.616Z,98091.47
2018-09-14T06:05:49.219Z,98092.76
2018-09-14T06:06:20.847Z,98091.48
2018-09-14T06:06:52.440Z,98085.57
2018-09-14T06:07:24.023Z,98091.09
2018-09-14T06:07:55.612Z,98093.22
2018-09-14T06:08:27.200Z,98094.89
2018-09-14T06:08:58.797Z,98097.06
2018-09-14T06:09:30.418Z,98096.17
2018-09-14T06:10:02.018Z,98095.31
2018-09-14T06:10:33.658Z,98097.07
2018-09-14T06:11:05.219Z,98098.35
2018-09-14T06:11:36.827Z,98094.16